Time;durP1;ratioP1;P1;durP2;ratioP2;P2;SDS_P1;SDS_P2;PMS_P1;PMS_P2;Temp;Humidity;BMP_temperature;BMP_pressure;BME280_temperature;BME280_humidity;BME280_pressure;Samples;Min_cycle;Max_cycle;Signal;HPM_P1;HPM_P2
2022/09/09 00:02:25;;;;;;;2.72;1.05;;;;;;;14.53;100.00;100066.03;5170354;28;20041;-74
2022/09/09 00:05:12;;;;;;;2.28;1.20;;;;;;;14.59;100.00;100072.72;5171441;28;20076;-74
2022/09/09 00:07:51;;;;;;;5.10;1.20;;;;;;;14.61;100.00;100063.75;5157497;28;20246;-74
2022/09/09 00:10:31;;;;;;;2.13;0.90;;;;;;;14.71;100.00;100053.53;5163295;28;20364;-74
2022/09/09 00:13:20;;;;;;;3.08;0.90;;;;;;;14.68;100.00;100065.09;5160660;28;20120;-74
2022/09/09 00:16:02;;;;;;;2.53;0.98;;;;;;;14.72;100.00;100063.13;5167929;28;20030;-74
2022/09/09 00:19:00;;;;;;;1.73;0.70;;;;;;;14.75;100.00;100068.22;5165641;28;20113;-74
2022/09/09 00:21:36;;;;;;;3.92;1.00;;;;;;;14.79;100.00;100064.47;5169039;28;20030;-74
2022/09/09 00:24:38;;;;;;;2.90;0.70;;;;;;;14.82;100.00;100062.50;5147008;28;20027;-74
2022/09/09 00:27:13;;;;;;;3.10;0.95;;;;;;;14.89;100.00;100056.78;5157688;28;20018;-74
2022/09/09 00:30:01;;;;;;;2.33;0.77;;;;;;;14.88;100.00;100051.59;5165039;28;20034;-74
2022/09/09 00:32:35;;;;;;;5.05;0.88;;;;;;;14.86;100.00;100059.56;5167850;28;20032;-72
2022/09/09 00:35:44;;;;;;;1.80;0.80;;;;;;;14.87;100.00;100056.00;5162976;28;20563;-74
2022/09/09 00:38:19;;;;;;;1.75;0.63;;;;;;;14.74;100.00;100059.47;5159967;28;20420;-74
2022/09/09 00:40:52;;;;;;;4.03;0.95;;;;;;;14.79;100.00;100067.09;5165110;28;20035;-74
2022/09/09 00:43:32;;;;;;;2.45;0.80;;;;;;;14.73;100.00;100070.09;5164764;28;20046;-74
2022/09/09 00:46:31;;;;;;;2.00;0.73;;;;;;;14.74;100.00;100061.28;5167830;28;20504;-74
2022/09/09 00:49:15;;;;;;;2.65;0.73;;;;;;;14.83;100.00;100057.13;5169492;28;20037;-74
2022/09/09 00:52:18;;;;;;;2.90;0.82;;;;;;;14.80;100.00;100047.72;5166489;28;20373;-74
2022/09/09 00:55:07;;;;;;;3.47;0.75;;;;;;;14.71;100.00;100053.53;5166437;28;20418;-74
2022/09/09 00:57:38;;;;;;;3.08;0.75;;;;;;;14.78;100.00;100047.81;5161862;28;20034;-74
2022/09/09 01:00:18;;;;;;;1.52;0.60;;;;;;;14.85;100.00;100055.25;5170591;28;20502;-74
2022/09/09 01:02:51;;;;;;;2.55;0.70;;;;;;;14.91;100.00;100057.50;5169023;28;20030;-74
2022/09/09 01:05:54;;;;;;;2.20;0.60;;;;;;;14.83;100.00;100053.66;5168207;28;20083;-74
2022/09/09 01:08:41;;;;;;;2.45;0.77;;;;;;;14.79;100.00;100056.56;5160061;28;20042;-74
2022/09/09 01:11:21;;;;;;;1.38;0.60;;;;;;;14.77;100.00;100051.38;5160326;28;20018;-74
2022/09/09 01:14:20;;;;;;;1.48;0.70;;;;;;;14.67;100.00;100062.56;5164701;28;20025;-74
2022/09/09 01:16:54;;;;;;;3.45;0.60;;;;;;;14.60;100.00;100061.25;5193629;23;20046;-80
2022/09/09 01:19:39;;;;;;;2.08;0.60;;;;;;;14.40;100.00;100059.78;5187323;28;20030;-80
2022/09/09 01:22:36;;;;;;;2.13;0.60;;;;;;;14.44;100.00;100069.19;5166609;28;20573;-80
2022/09/09 01:25:29;;;;;;;1.15;0.50;;;;;;;14.33;100.00;100070.75;5165607;28;20037;-79
2022/09/09 01:28:04;;;;;;;2.50;0.80;;;;;;;14.30;100.00;100070.94;5177586;28;20034;-79
2022/09/09 01:30:38;;;;;;;3.40;1.10;;;;;;;14.21;100.00;100064.44;5171000;28;20033;-78
2022/09/09 01:33:15;;;;;;;2.20;0.80;;;;;;;14.23;100.00;100062.56;5174490;28;20034;-78
2022/09/09 01:35:48;;;;;;;2.88;0.73;;;;;;;14.19;100.00;100070.72;5174931;28;20293;-78
2022/09/09 01:38:18;;;;;;;2.20;0.70;;;;;;;14.12;100.00;100074.63;5144852;28;20026;-78
2022/09/09 01:40:51;;;;;;;1.20;0.60;;;;;;;14.11;100.00;100062.41;5171476;28;20567;-78
2022/09/09 01:43:23;;;;;;;2.40;0.70;;;;;;;14.05;100.00;100058.34;5145733;28;20172;-79
2022/09/09 01:45:58;;;;;;;2.00;0.60;;;;;;;14.02;100.00;100057.66;5176161;28;20034;-79
2022/09/09 01:48:29;;;;;;;2.40;0.77;;;;;;;13.84;100.00;100067.47;5176653;28;20030;-78
2022/09/09 01:50:59;;;;;;;2.85;0.77;;;;;;;13.90;100.00;100066.28;5160204;28;20277;-78
2022/09/09 01:53:30;;;;;;;5.93;1.08;;;;;;;13.84;100.00;100054.34;5160509;28;20034;-78
2022/09/09 01:56:10;;;;;;;2.15;0.60;;;;;;;14.05;100.00;100055.72;5160509;28;20120;-78
2022/09/09 01:58:56;;;;;;;1.98;0.70;;;;;;;13.91;100.00;100060.91;5169067;28;20112;-78
2022/09/09 02:02:06;;;;;;;8.25;1.45;;;;;;;13.83;100.00;100057.91;5157468;28;20026;-78
2022/09/09 02:04:42;;;;;;;5.93;0.70;;;;;;;13.74;100.00;100054.94;5171198;28;20071;-78
2022/09/09 02:07:25;;;;;;;3.05;0.90;;;;;;;13.76;100.00;100055.69;5163259;28;20164;-78
2022/09/09 02:10:09;;;;;;;1.83;0.68;;;;;;;13.67;100.00;100050.97;5171828;28;20399;-79
2022/09/09 02:12:44;;;;;;;1.38;0.73;;;;;;;13.70;100.00;100062.16;5161828;28;20050;-79
2022/09/09 02:15:22;;;;;;;2.40;0.80;;;;;;;13.71;100.00;100063.00;5172445;28;20032;-79
2022/09/09 02:17:57;;;;;;;1.67;0.75;;;;;;;13.67;100.00;100058.84;5176904;28;20030;-79
2022/09/09 02:20:32;;;;;;;2.40;0.70;;;;;;;13.69;100.00;100063.09;5177831;28;20040;-78
2022/09/09 02:23:04;;;;;;;3.22;0.90;;;;;;;13.66;100.00;100065.03;5159981;28;20305;-79
2022/09/09 02:25:36;;;;;;;2.95;0.93;;;;;;;13.47;100.00;100067.84;5176575;28;20040;-77
2022/09/09 02:28:09;;;;;;;2.25;0.70;;;;;;;13.43;100.00;100058.41;5150566;28;20096;-75
2022/09/09 02:30:41;;;;;;;2.75;0.70;;;;;;;13.42;100.00;100061.16;5177968;28;20022;-79
2022/09/09 02:33:13;;;;;;;1.77;0.70;;;;;;;13.38;100.00;100052.59;5173778;28;20177;-79
2022/09/09 02:35:45;;;;;;;2.78;0.60;;;;;;;13.41;100.00;100054.22;5172897;28;20562;-78
2022/09/09 02:38:17;;;;;;;2.15;0.70;;;;;;;13.39;100.00;100045.56;5161013;28;20034;-78
2022/09/09 02:40:48;;;;;;;5.90;0.88;;;;;;;13.40;100.00;100047.25;5170754;28;20317;-78
2022/09/09 02:43:18;;;;;;;3.35;0.63;;;;;;;13.46;100.00;100046.91;5162269;28;20023;-79
2022/09/09 02:46:16;;;;;;;3.58;0.70;;;;;;;13.44;100.00;100041.72;5177657;28;20447;-78
2022/09/09 02:49:03;;;;;;;3.53;0.80;;;;;;;13.51;100.00;100050.13;5155131;28;20057;-78
2022/09/09 02:51:43;;;;;;;1.70;0.73;;;;;;;13.44;100.00;100044.34;5177931;28;20029;-78
2022/09/09 02:54:13;;;;;;;13.50;7.53;;;;;;;13.37;100.00;100047.44;5171899;28;20036;-79
2022/09/09 02:56:50;;;;;;;6.03;3.10;;;;;;;13.37;100.00;100050.06;5162319;28;20491;-80
2022/09/09 02:59:21;;;;;;;4.82;1.70;;;;;;;13.38;100.00;100038.63;5146599;28;20076;-79
2022/09/09 03:01:53;;;;;;;2.42;0.90;;;;;;;13.55;100.00;100046.41;5157137;28;20455;-79
2022/09/09 03:04:24;;;;;;;3.05;0.90;;;;;;;13.53;100.00;100049.13;5181650;28;20032;-78
2022/09/09 03:06:55;;;;;;;4.63;1.10;;;;;;;13.50;100.00;100048.44;5180493;28;20030;-77
2022/09/09 03:09:25;;;;;;;2.75;0.85;;;;;;;13.58;100.00;100048.88;5180967;28;20024;-78
2022/09/09 03:11:56;;;;;;;4.05;1.00;;;;;;;13.54;100.00;100050.81;5166277;28;20498;-79
2022/09/09 03:14:26;;;;;;;4.20;1.13;;;;;;;13.58;100.00;100056.75;5174435;28;20022;-78
2022/09/09 03:17:00;;;;;;;3.75;0.80;;;;;;;13.64;100.00;100056.38;5180449;28;20034;-78
2022/09/09 03:19:31;;;;;;;2.58;0.77;;;;;;;13.61;100.00;100051.31;5181008;28;20037;-78
2022/09/09 03:22:04;;;;;;;4.82;0.90;;;;;;;13.57;100.00;100055.88;5180789;28;20026;-79
2022/09/09 03:24:34;;;;;;;1.33;0.68;;;;;;;13.52;100.00;100052.66;5173660;28;20037;-80
2022/09/09 03:27:04;;;;;;;5.63;1.00;;;;;;;13.51;100.00;100052.75;5168679;28;20480;-78
2022/09/09 03:29:35;;;;;;;2.17;0.90;;;;;;;13.55;100.00;100051.66;5170927;28;20029;-79
2022/09/09 03:32:05;;;;;;;3.80;0.80;;;;;;;13.58;100.00;100051.50;5177184;28;20105;-79
2022/09/09 03:34:38;;;;;;;2.88;0.90;;;;;;;13.51;100.00;100056.22;5163255;28;20024;-78
2022/09/09 03:37:09;;;;;;;1.65;0.80;;;;;;;13.61;100.00;100059.19;5162400;28;20400;-78
2022/09/09 03:39:39;;;;;;;3.78;1.00;;;;;;;13.53;100.00;100057.00;5179219;28;20029;-78
2022/09/09 03:42:13;;;;;;;2.03;0.77;;;;;;;13.54;100.00;100060.47;5164644;28;20073;-79
2022/09/09 03:44:49;;;;;;;3.95;0.90;;;;;;;13.59;100.00;100058.44;5172154;28;20485;-78
2022/09/09 03:47:21;;;;;;;6.03;1.10;;;;;;;13.55;100.00;100057.75;5179372;28;20018;-78
2022/09/09 03:49:51;;;;;;;3.05;1.08;;;;;;;13.62;100.00;100058.25;5180558;28;20034;-79
2022/09/09 03:52:24;;;;;;;2.58;0.88;;;;;;;13.64;100.00;100059.88;5180142;28;20112;-79
2022/09/09 03:54:56;;;;;;;3.22;0.98;;;;;;;13.68;100.00;100055.28;5180785;28;20032;-78
2022/09/09 03:57:26;;;;;;;2.33;1.00;;;;;;;13.75;100.00;100054.84;5146927;28;20026;-79
2022/09/09 03:59:57;;;;;;;4.60;0.93;;;;;;;13.72;100.00;100055.03;5173399;28;20044;-79
2022/09/09 04:02:28;;;;;;;3.00;1.08;;;;;;;13.77;100.00;100044.25;5160473;28;20034;-78
2022/09/09 04:04:59;;;;;;;4.07;1.02;;;;;;;13.77;100.00;100041.63;5181830;28;20416;-78
2022/09/09 04:07:29;;;;;;;2.70;1.00;;;;;;;13.76;100.00;100051.28;5161540;28;20438;-77
2022/09/09 04:10:00;;;;;;;3.35;1.10;;;;;;;13.78;100.00;100048.59;5160367;28;20030;-79
2022/09/09 04:12:30;;;;;;;2.03;1.00;;;;;;;13.75;100.00;100054.00;5163702;28;20030;-79
2022/09/09 04:15:01;;;;;;;4.97;0.95;;;;;;;13.76;100.00;100055.69;5175566;28;20566;-79
2022/09/09 04:17:32;;;;;;;3.53;1.00;;;;;;;13.81;100.00;100049.25;5179459;28;20072;-78
2022/09/09 04:20:03;;;;;;;4.60;1.17;;;;;;;13.74;100.00;100052.31;5179374;28;20037;-79
2022/09/09 04:22:34;;;;;;;2.15;1.00;;;;;;;13.85;100.00;100053.41;5179973;28;20516;-78
2022/09/09 04:25:05;;;;;;;3.40;1.10;;;;;;;13.85;100.00;100045.53;5179726;28;20036;-79
2022/09/09 04:27:36;;;;;;;4.65;1.20;;;;;;;13.96;100.00;100055.41;5162180;28;20037;-78
2022/09/09 04:30:07;;;;;;;3.15;0.90;;;;;;;13.97;100.00;100064.97;5173580;28;20021;-80
2022/09/09 04:32:37;;;;;;;4.45;1.10;;;;;;;13.93;100.00;100069.56;5176154;28;20102;-76
2022/09/09 04:35:08;;;;;;;4.22;1.20;;;;;;;14.03;100.00;100059.38;5181007;28;20108;-76
2022/09/09 04:37:38;;;;;;;4.20;1.17;;;;;;;14.09;100.00;100065.13;5162242;28;20037;-76
2022/09/09 04:40:09;;;;;;;4.05;1.23;;;;;;;14.04;100.00;100067.16;5177202;28;20029;-76
2022/09/09 04:42:48;;;;;;;3.85;1.30;;;;;;;14.11;100.00;100057.97;5156758;28;20500;-78
2022/09/09 04:45:18;;;;;;;4.90;1.10;;;;;;;14.17;100.00;100067.34;5181168;28;20387;-77
2022/09/09 04:47:48;;;;;;;3.70;1.10;;;;;;;14.24;100.00;100063.44;5178939;28;20041;-79
2022/09/09 04:50:19;;;;;;;3.85;1.20;;;;;;;14.16;100.00;100073.53;5179250;28;20048;-78
2022/09/09 04:52:50;;;;;;;4.38;0.90;;;;;;;14.13;100.00;100066.66;5180770;28;20152;-78
2022/09/09 04:55:20;;;;;;;4.25;1.17;;;;;;;14.14;100.00;100076.22;5180256;28;20030;-78
2022/09/09 04:57:50;;;;;;;4.55;1.10;;;;;;;14.09;100.00;100080.88;5166384;28;20484;-79
2022/09/09 05:00:20;;;;;;;5.57;1.35;;;;;;;14.10;100.00;100076.50;5174745;28;20045;-78
2022/09/09 05:02:51;;;;;;;3.88;1.20;;;;;;;14.21;100.00;100074.97;5138916;28;20038;-79
2022/09/09 05:05:22;;;;;;;3.78;1.17;;;;;;;14.25;100.00;100081.72;5162917;28;20061;-79
2022/09/09 05:07:52;;;;;;;3.85;1.27;;;;;;;14.26;100.00;100078.16;5179219;28;20041;-78
2022/09/09 05:10:23;;;;;;;8.68;1.30;;;;;;;14.33;100.00;100073.38;5157560;28;20048;-79
2022/09/09 05:12:54;;;;;;;3.00;1.20;;;;;;;14.45;100.00;100078.75;5162099;28;20030;-78
2022/09/09 05:15:24;;;;;;;3.60;1.20;;;;;;;14.52;100.00;100080.13;5158940;28;20045;-79
2022/09/09 05:18:00;;;;;;;2.65;1.00;;;;;;;14.59;100.00;100080.59;5167776;28;20042;-78
2022/09/09 05:20:30;;;;;;;;;;;;;;;14.70;100.00;100075.53;5175047;28;20026;-79
2022/09/09 05:23:00;;;;;;;3.58;1.00;;;;;;;14.78;100.00;100086.44;5160510;28;19917;-79
2022/09/09 05:25:31;;;;;;;7.22;1.30;;;;;;;14.67;100.00;100073.06;5159171;28;20483;-80
2022/09/09 05:28:01;;;;;;;4.30;1.10;;;;;;;14.71;100.00;100079.84;5161408;28;20034;-79
2022/09/09 05:30:31;;;;;;;5.13;1.60;;;;;;;14.73;100.00;100085.88;5145833;28;20586;-79
2022/09/09 05:33:02;;;;;;;3.10;1.08;;;;;;;14.82;100.00;100074.78;5173136;28;20022;-80
2022/09/09 05:35:33;;;;;;;3.85;1.23;;;;;;;14.77;100.00;100095.28;5167741;28;20313;-79
2022/09/09 05:38:04;;;;;;;5.63;1.38;;;;;;;14.84;100.00;100085.13;5180087;28;20107;-80
2022/09/09 05:40:34;;;;;;;3.08;1.08;;;;;;;15.03;100.00;100083.06;5174016;28;20030;-79
2022/09/09 05:43:05;;;;;;;5.07;1.35;;;;;;;14.98;100.00;100090.41;5166701;28;20030;-79
2022/09/09 05:45:36;;;;;;;4.32;1.00;;;;;;;14.98;100.00;100085.13;5184923;28;20025;-79
2022/09/09 05:48:07;;;;;;;3.38;0.98;;;;;;;15.06;100.00;100092.56;5180974;28;20022;-76
2022/09/09 05:50:37;;;;;;;4.32;1.27;;;;;;;15.18;100.00;100092.66;5184731;28;20092;-79
2022/09/09 05:53:09;;;;;;;6.20;1.55;;;;;;;15.22;100.00;100094.13;5183841;28;20464;-79
2022/09/09 05:55:40;;;;;;;6.13;1.40;;;;;;;15.32;100.00;100095.31;5160806;28;20046;-79
2022/09/09 05:58:10;;;;;;;4.90;1.02;;;;;;;15.38;100.00;100094.91;5143367;28;20045;-77
2022/09/09 06:00:41;;;;;;;7.15;1.42;;;;;;;15.43;100.00;100087.59;5175674;28;20030;-79
2022/09/09 06:03:12;;;;;;;3.08;1.30;;;;;;;15.49;100.00;100088.97;5175283;28;20033;-80
2022/09/09 06:05:42;;;;;;;5.32;1.00;;;;;;;15.55;100.00;100092.06;5153594;28;20030;-79
2022/09/09 06:08:12;;;;;;;6.60;1.25;;;;;;;15.63;100.00;100095.06;5172327;28;20391;-77
2022/09/09 06:10:43;;;;;;;3.78;1.15;;;;;;;15.51;100.00;100090.56;5174690;28;20058;-78
2022/09/09 06:13:13;;;;;;;6.30;1.30;;;;;;;15.53;100.00;100096.59;5164457;28;20022;-76
2022/09/09 06:15:51;;;;;;;4.43;1.20;;;;;;;15.59;100.00;100101.47;5161818;28;20029;-77
2022/09/09 06:18:22;;;;;;;5.03;1.23;;;;;;;15.73;100.00;100090.88;5181427;28;20041;-79
2022/09/09 06:21:04;;;;;;;3.33;1.15;;;;;;;15.90;100.00;100098.56;5183510;28;20034;-79
2022/09/09 06:23:37;;;;;;;4.22;1.20;;;;;;;16.03;100.00;100098.63;5175486;28;20033;-80
2022/09/09 06:26:13;;;;;;;4.45;1.30;;;;;;;16.31;100.00;100103.75;5161996;28;20038;-80
2022/09/09 06:28:45;;;;;;;7.53;1.33;;;;;;;16.48;100.00;100096.44;5164927;28;20034;-79
2022/09/09 06:31:21;;;;;;;4.40;1.20;;;;;;;16.69;100.00;100097.63;5150966;28;20380;-78
2022/09/09 06:33:53;;;;;;;5.63;1.48;;;;;;;16.89;100.00;100099.75;5183502;28;20029;-79
2022/09/09 06:36:25;;;;;;;5.88;1.05;;;;;;;17.29;100.00;100098.69;5184888;28;20033;-80
2022/09/09 06:38:55;;;;;;;3.90;1.00;;;;;;;17.41;100.00;100095.19;5169330;28;20403;-79
2022/09/09 06:41:28;;;;;;;3.75;0.93;;;;;;;17.66;100.00;100100.44;5176484;28;20034;-79
2022/09/09 06:43:59;;;;;;;4.60;1.10;;;;;;;17.80;100.00;100100.28;5179414;28;20038;-79
2022/09/09 06:46:32;;;;;;;4.70;1.05;;;;;;;17.76;100.00;100097.00;5189154;28;20034;-79
2022/09/09 06:49:03;;;;;;;4.55;0.90;;;;;;;17.70;100.00;100099.25;5186540;28;20030;-79
2022/09/09 06:51:35;;;;;;;3.10;0.98;;;;;;;17.79;100.00;100095.94;5190203;28;20024;-79
2022/09/09 06:54:06;;;;;;;5.80;1.05;;;;;;;17.83;100.00;100102.69;5181877;28;20794;-79
2022/09/09 06:56:40;;;;;;;3.90;0.90;;;;;;;18.92;100.00;100097.00;5180233;28;20042;-79
2022/09/09 06:59:11;;;;;;;3.38;0.95;;;;;;;20.85;99.26;100081.00;5177302;28;20316;-80
2022/09/09 07:01:51;;;;;;;3.67;0.98;;;;;;;22.96;92.29;100083.81;5184094;28;20034;-79
2022/09/09 07:04:21;;;;;;;2.90;0.80;;;;;;;24.34;80.36;100063.97;5189867;28;20239;-80
2022/09/09 07:06:52;;;;;;;2.17;0.68;;;;;;;26.26;76.19;100063.19;5195210;28;20034;-80
2022/09/09 07:09:23;;;;;;;2.65;0.85;;;;;;;24.94;77.26;100056.78;5173550;28;20080;-80
2022/09/09 07:11:53;;;;;;;2.55;0.80;;;;;;;24.25;77.53;100068.41;5149000;28;20495;-79
2022/09/09 07:14:24;;;;;;;3.20;0.90;;;;;;;22.08;86.71;100072.66;5173519;28;20045;-79
2022/09/09 07:16:54;;;;;;;2.05;0.70;;;;;;;20.90;96.31;100077.00;5183265;23;20741;-72
2022/09/09 07:19:24;;;;;;;3.93;0.80;;;;;;;22.18;93.24;100078.81;5177307;28;20178;-72
2022/09/09 07:21:55;;;;;;;4.38;0.90;;;;;;;22.98;88.48;100063.19;5171674;28;20701;-72
2022/09/09 07:24:25;;;;;;;1.67;0.60;;;;;;;25.56;77.40;100055.63;5169623;28;20038;-72
2022/09/09 07:26:55;;;;;;;3.80;0.80;;;;;;;24.26;83.02;100059.44;5171309;28;20431;-72
2022/09/09 07:29:25;;;;;;;2.93;0.70;;;;;;;24.22;80.45;100065.22;5162754;28;20796;-72
2022/09/09 07:31:56;;;;;;;3.70;0.90;;;;;;;25.31;77.76;100061.88;5170597;28;20285;-72
2022/09/09 07:34:26;;;;;;;5.10;0.80;;;;;;;26.13;77.09;100061.00;5175724;28;20152;-72
2022/09/09 07:36:57;;;;;;;4.30;0.70;;;;;;;25.30;79.23;100060.22;5179133;28;20227;-72
2022/09/09 07:39:27;;;;;;;2.78;0.82;;;;;;;25.61;78.86;100069.34;5162438;28;20276;-72
2022/09/09 07:41:58;;;;;;;3.53;0.83;;;;;;;24.31;80.77;100075.81;5177971;28;20448;-72
2022/09/09 07:44:28;;;;;;;3.90;0.80;;;;;;;24.53;76.05;100082.56;5180121;28;20040;-72
2022/09/09 07:46:59;;;;;;;2.45;0.68;;;;;;;23.05;82.41;100085.59;5178033;28;20029;-72
2022/09/09 07:49:29;;;;;;;3.90;0.80;;;;;;;22.06;86.32;100083.44;5161558;28;20582;-72
2022/09/09 07:52:00;;;;;;;3.50;1.10;;;;;;;22.37;87.89;100089.47;5175858;28;20104;-74
2022/09/09 07:54:31;;;;;;;2.40;0.70;;;;;;;22.65;85.94;100083.31;5169981;28;20291;-72
2022/09/09 07:57:03;;;;;;;2.33;0.68;;;;;;;22.32;86.73;100086.38;5171079;28;20440;-74
2022/09/09 07:59:33;;;;;;;5.00;0.98;;;;;;;21.78;88.63;100086.88;5178739;28;20029;-72
2022/09/09 08:02:04;;;;;;;5.63;0.90;;;;;;;23.51;85.53;100082.94;5164887;28;20022;-72
2022/09/09 08:04:34;;;;;;;2.78;0.60;;;;;;;23.26;83.75;100091.63;5165957;28;20291;-72
2022/09/09 08:07:05;;;;;;;2.70;0.80;;;;;;;24.51;79.82;100069.31;5179230;28;20030;-72
2022/09/09 08:09:35;;;;;;;3.05;0.60;;;;;;;25.33;80.67;100073.28;5179845;28;20288;-73
2022/09/09 08:12:06;;;;;;;3.47;0.70;;;;;;;25.20;77.24;100083.56;5177438;28;20022;-73
2022/09/09 08:14:37;;;;;;;2.15;0.55;;;;;;;26.85;73.46;100086.00;5162567;28;20289;-73
2022/09/09 08:17:08;;;;;;;3.58;0.80;;;;;;;26.79;71.68;100091.22;5178539;28;20025;-73
2022/09/09 08:19:38;;;;;;;3.80;0.70;;;;;;;28.55;65.47;100079.75;5180054;28;20026;-72
2022/09/09 08:22:09;;;;;;;3.53;1.20;;;;;;;28.34;67.74;100074.22;5168609;28;20566;-73
2022/09/09 08:24:39;;;;;;;5.40;0.90;;;;;;;26.71;67.62;100085.03;5170281;28;20276;-73
2022/09/09 08:27:09;;;;;;;4.30;0.77;;;;;;;26.94;67.34;100089.53;5160981;28;20071;-73
2022/09/09 08:29:40;;;;;;;2.88;0.70;;;;;;;26.85;70.63;100088.69;5179632;28;20040;-73
2022/09/09 08:32:10;;;;;;;5.32;0.77;;;;;;;26.89;68.81;100095.41;5176505;28;20495;-73
2022/09/09 08:34:41;;;;;;;4.70;0.80;;;;;;;26.43;70.12;100097.03;5179799;28;20526;-73
2022/09/09 08:37:11;;;;;;;3.58;0.70;;;;;;;25.81;71.73;100097.56;5160718;28;20702;-73
2022/09/09 08:39:42;;;;;;;2.40;0.67;;;;;;;25.03;73.35;100100.47;5178620;28;20038;-71
2022/09/09 08:42:33;;;;;;;3.30;0.80;;;;;;;26.56;69.00;100092.06;5176577;28;20296;-71
2022/09/09 08:45:24;;;;;;;3.92;0.90;;;;;;;27.89;66.80;100096.47;5179614;28;20793;-72
2022/09/09 08:48:07;;;;;;;3.47;0.90;;;;;;;26.95;67.72;100101.94;5175730;28;20033;-72
2022/09/09 08:50:40;;;;;;;2.85;0.70;;;;;;;28.30;65.62;100105.97;5172675;28;20030;-71
2022/09/09 08:53:25;;;;;;;2.58;0.60;;;;;;;27.08;66.93;100107.63;5176140;28;20030;-71
2022/09/09 08:56:01;;;;;;;4.63;0.88;;;;;;;27.71;64.97;100101.28;5179592;28;20033;-72
2022/09/09 08:58:34;;;;;;;8.30;1.20;;;;;;;26.94;67.84;100111.00;5178077;28;20045;-72
2022/09/09 09:01:41;;;;;;;4.60;0.63;;;;;;;27.57;67.32;100101.09;5171423;28;20021;-72
2022/09/09 09:04:34;;;;;;;4.13;0.90;;;;;;;27.81;65.26;100107.25;5173324;28;20108;-71
2022/09/09 09:07:42;;;;;;;3.28;0.70;;;;;;;27.82;64.71;100098.19;5170720;28;20458;-72
2022/09/09 09:10:24;;;;;;;3.65;0.90;;;;;;;28.04;64.04;100102.78;5160610;28;20203;-71
2022/09/09 09:12:54;;;;;;;4.15;0.90;;;;;;;26.83;68.15;100101.44;5178662;28;20034;-71
2022/09/09 09:15:30;;;;;;;3.50;0.90;;;;;;;26.24;68.81;100105.41;5178845;28;20407;-72
2022/09/09 09:18:00;;;;;;;4.10;1.10;;;;;;;27.32;67.57;100100.38;5177432;28;20038;-72
2022/09/09 09:21:03;;;;;;;4.25;0.82;;;;;;;26.21;68.90;100103.06;5178352;28;20040;-72
2022/09/09 09:23:45;;;;;;;3.28;0.80;;;;;;;25.09;70.58;100100.69;5178449;28;20034;-71
2022/09/09 09:26:15;;;;;;;4.32;0.82;;;;;;;24.26;74.99;100104.84;5173058;28;20100;-71
2022/09/09 09:28:46;;;;;;;5.00;0.90;;;;;;;24.51;74.56;100109.41;5177257;28;20034;-71
2022/09/09 09:31:19;;;;;;;4.85;0.80;;;;;;;25.16;73.91;100114.28;5176004;28;20068;-72
2022/09/09 09:33:52;;;;;;;5.40;1.08;;;;;;;24.60;75.65;100113.88;5167258;28;20487;-74
2022/09/09 09:36:33;;;;;;;4.10;0.80;;;;;;;24.50;75.42;100122.91;5166182;28;20026;-73
2022/09/09 09:39:05;;;;;;;3.72;1.00;;;;;;;23.61;77.69;100126.44;5178116;28;20114;-73
2022/09/09 09:41:41;;;;;;;2.67;0.80;;;;;;;23.71;77.08;100119.19;5168187;28;20025;-73
2022/09/09 09:44:29;;;;;;;5.00;0.73;;;;;;;24.01;77.50;100115.44;5172340;28;20025;-73
2022/09/09 09:47:13;;;;;;;3.92;0.90;;;;;;;24.10;79.57;100115.38;5176668;28;20195;-73
2022/09/09 09:50:00;;;;;;;3.72;0.80;;;;;;;24.03;80.93;100113.44;5172411;28;20057;-73
2022/09/09 09:52:34;;;;;;;5.13;0.93;;;;;;;23.72;80.56;100120.88;5178436;28;20014;-71
2022/09/09 09:55:13;;;;;;;5.47;0.80;;;;;;;22.94;81.57;100124.91;5170526;28;20129;-73
2022/09/09 09:57:44;;;;;;;3.78;0.77;;;;;;;23.18;84.11;100115.50;5176635;28;20109;-74
2022/09/09 10:00:21;;;;;;;4.15;0.90;;;;;;;23.54;79.67;100111.16;5177815;28;20476;-73
2022/09/09 10:02:52;;;;;;;5.35;1.20;;;;;;;23.58;78.50;100116.06;5169873;28;20278;-73
2022/09/09 10:05:35;;;;;;;4.55;0.95;;;;;;;23.37;80.72;100115.41;5177443;28;20125;-74
2022/09/09 10:08:13;;;;;;;5.20;0.75;;;;;;;23.92;77.42;100114.50;5169604;28;20026;-74
2022/09/09 10:10:46;;;;;;;3.33;0.88;;;;;;;23.42;79.80;100102.50;5175636;28;20038;-73
2022/09/09 10:13:24;;;;;;;5.65;1.17;;;;;;;23.40;78.71;100109.78;5176663;28;20484;-74
2022/09/09 10:16:13;;;;;;;5.53;0.70;;;;;;;23.78;79.96;100096.28;5177632;28;20065;-74
2022/09/09 10:18:59;;;;;;;4.55;0.93;;;;;;;23.61;78.86;100093.56;5171948;28;20072;-73
2022/09/09 10:21:57;;;;;;;3.55;0.80;;;;;;;24.05;78.39;100090.09;5178152;28;20034;-73
2022/09/09 10:24:37;;;;;;;5.47;1.13;;;;;;;23.98;79.25;100089.84;5175775;28;20030;-72
2022/09/09 10:27:25;;;;;;;3.78;0.80;;;;;;;24.32;78.02;100088.19;5152088;28;20064;-73
2022/09/09 10:30:12;;;;;;;4.95;0.93;;;;;;;24.19;77.96;100085.06;5175424;28;20033;-73
2022/09/09 10:33:13;;;;;;;4.63;0.93;;;;;;;24.38;75.82;100081.41;5167712;28;20056;-73
2022/09/09 10:35:59;;;;;;;4.72;0.85;;;;;;;24.32;76.97;100077.50;5175991;28;20042;-73
2022/09/09 10:38:37;;;;;;;3.38;0.82;;;;;;;24.74;74.63;100068.69;5176103;28;20628;-73
2022/09/09 10:41:16;;;;;;;3.97;1.10;;;;;;;24.63;76.08;100070.78;5167362;28;20108;-73
2022/09/09 10:43:56;;;;;;;3.42;0.80;;;;;;;24.69;77.10;100074.69;5172637;28;20051;-73
2022/09/09 10:46:58;;;;;;;5.40;1.08;;;;;;;24.38;73.95;100074.22;5176990;28;20095;-72
2022/09/09 10:49:56;;;;;;;4.20;0.80;;;;;;;24.03;74.21;100076.88;5173183;28;20037;-73
2022/09/09 10:52:45;;;;;;;4.28;0.80;;;;;;;23.68;75.25;100082.13;5175667;28;20026;-73
2022/09/09 10:55:27;;;;;;;4.00;0.80;;;;;;;23.46;76.61;100092.34;5170390;28;20030;-72
2022/09/09 10:57:58;;;;;;;3.60;0.90;;;;;;;23.08;78.09;100085.34;5175409;28;20034;-73
2022/09/09 11:00:42;;;;;;;5.10;0.85;;;;;;;22.85;76.81;100075.97;5177427;28;20104;-73
2022/09/09 11:03:22;;;;;;;3.75;0.82;;;;;;;22.50;78.24;100074.06;5167853;28;20030;-73
2022/09/09 11:05:58;;;;;;;3.92;0.82;;;;;;;22.89;79.11;100080.06;5177349;28;20067;-73
2022/09/09 11:08:29;;;;;;;5.05;0.93;;;;;;;22.96;78.50;100067.81;5176241;28;20125;-73
2022/09/09 11:11:09;;;;;;;6.78;0.93;;;;;;;22.81;80.57;100069.25;5155469;28;20033;-73
2022/09/09 11:13:52;;;;;;;3.42;0.77;;;;;;;22.70;78.72;100072.06;5159168;28;20030;-73
2022/09/09 11:16:28;;;;;;;4.47;0.85;;;;;;;22.55;80.65;100064.69;5176560;28;20092;-74
2022/09/09 11:19:04;;;;;;;5.70;1.33;;;;;;;22.62;80.66;100062.28;5176457;28;20030;-73
2022/09/09 11:21:42;;;;;;;4.13;1.00;;;;;;;22.86;80.74;100056.31;5170202;28;20511;-73
2022/09/09 11:24:25;;;;;;;3.67;0.80;;;;;;;22.79;79.37;100057.91;5180206;28;20063;-73
2022/09/09 11:27:06;;;;;;;4.88;0.80;;;;;;;22.91;82.62;100059.44;5180052;28;20117;-73
2022/09/09 11:30:05;;;;;;;5.80;0.93;;;;;;;22.88;81.18;100054.34;5174291;28;20041;-73
2022/09/09 11:33:07;;;;;;;4.63;0.90;;;;;;;22.62;78.20;100060.44;5169630;28;20029;-73
2022/09/09 11:35:56;;;;;;;5.30;0.98;;;;;;;22.94;80.88;100053.81;5162382;28;20026;-73
2022/09/09 11:38:29;;;;;;;4.45;0.90;;;;;;;23.30;79.98;100049.47;5179912;28;20427;-73
2022/09/09 11:41:03;;;;;;;7.15;0.80;;;;;;;23.54;77.97;100050.59;5178283;28;20048;-73
2022/09/09 11:43:43;;;;;;;3.38;0.90;;;;;;;23.72;72.39;100056.81;5178680;28;20402;-73
2022/09/09 11:46:17;;;;;;;3.92;0.70;;;;;;;23.81;73.41;100065.75;5180625;28;20117;-73
2022/09/09 11:49:02;;;;;;;4.18;1.00;;;;;;;23.98;70.20;100065.81;5179617;28;20464;-74
2022/09/09 11:51:35;;;;;;;4.68;1.20;;;;;;;24.34;72.09;100059.47;5172893;28;20495;-73
2022/09/09 11:54:29;;;;;;;4.85;1.00;;;;;;;24.19;70.05;100070.88;5180878;28;20187;-73
2022/09/09 11:56:59;;;;;;;6.55;1.00;;;;;;;24.16;68.04;100050.63;5178640;28;20037;-74
2022/09/09 11:59:31;;;;;;;4.80;0.60;;;;;;;24.23;70.58;100056.22;5180399;28;20415;-74
2022/09/09 12:02:12;;;;;;;5.03;0.80;;;;;;;24.21;67.11;100053.69;5169759;28;20391;-73
2022/09/09 12:04:54;;;;;;;5.03;1.20;;;;;;;24.32;68.79;100050.78;5160799;28;20498;-74